Terminal Aerodrome Forecast
Issued by NWS

Home | Current Version | Previous Version | Text Only | Print | Product List | Glossary On
Versions: 1 2 3 4 5 6 7 8 9 10 11 12 13 14 15 16 17 18 19 20 21 22 23 24 25 26 27 28 29 30 31
000
FTUS45 KGJT 241730
TAFASE
TAF
KASE 241730Z 2418/2518 35004KT P6SM FEW100
     FM241900 33008KT P6SM SCT120 SCT150
     FM242200 27010G18KT P6SM VCTS SCT080CB BKN150
     FM250300 17006KT P6SM SCT130 SCT200
     FM251600 24006KT P6SM SCT250=

USA.gov is the U.S. government's official web portal to all federal, state and local government web resources and services.